createdAt,value
2019-03-29T00:00:53.165Z,63.20
2019-03-29T00:01:53.153Z,70.20
2019-03-29T00:02:53.142Z,69.50
2019-03-29T00:03:53.165Z,62.40
2019-03-29T00:04:53.188Z,74.30
2019-03-29T00:05:53.112Z,69.70
2019-03-29T00:06:53.097Z,66.90
2019-03-29T00:07:53.085Z,78.90
2019-03-29T00:08:53.084Z,67.10
2019-03-29T00:09:53.084Z,62.70
2019-03-29T00:10:53.062Z,71.50
2019-03-29T00:11:53.047Z,82.90
2019-03-29T00:12:53.042Z,77.00
2019-03-29T00:13:53.068Z,82.10
2019-03-29T00:14:53.016Z,89.40
2019-03-29T00:15:53.002Z,87.70
2019-03-29T00:16:52.989Z,78.10
2019-03-29T00:17:52.977Z,69.30
2019-03-29T00:18:52.987Z,93.90
2019-03-29T00:19:54.125Z,82.90
2019-03-29T00:20:52.949Z,102.40
2019-03-29T00:21:52.933Z,85.40
2019-03-29T00:22:52.923Z,81.10
2019-03-29T00:24:05.929Z,78.30
2019-03-29T00:24:53.931Z,59.10
2019-03-29T00:25:52.894Z,85.40
2019-03-29T00:26:53.223Z,79.40
2019-03-29T00:27:52.866Z,72.60
2019-03-29T00:28:52.856Z,86.40
2019-03-29T00:29:52.851Z,75.00
2019-03-29T00:30:52.856Z,82.30
2019-03-29T00:31:52.827Z,84.10
2019-03-29T00:32:52.821Z,83.50
2019-03-29T00:33:52.800Z,85.00
2019-03-29T00:34:52.797Z,86.30
2019-03-29T00:35:52.806Z,79.70
2019-03-29T00:36:52.782Z,89.50
2019-03-29T00:37:54.951Z,96.30
2019-03-29T00:38:52.754Z,106.40
2019-03-29T00:39:52.736Z,87.90
2019-03-29T00:40:52.730Z,103.50
2019-03-29T00:41:52.727Z,109.90
2019-03-29T00:42:52.703Z,107.60
2019-03-29T00:43:52.711Z,106.20
2019-03-29T00:44:52.904Z,111.30
2019-03-29T00:45:52.675Z,110.50
2019-03-29T00:46:52.670Z,111.70
2019-03-29T00:47:52.656Z,125.20
2019-03-29T00:48:52.645Z,114.30
2019-03-29T00:49:52.649Z,124.50
2019-03-29T00:50:52.615Z,121.80
2019-03-29T00:51:52.611Z,110.40
2019-03-29T00:52:52.614Z,136.50
2019-03-29T00:53:52.595Z,122.10
2019-03-29T00:54:52.576Z,113.80
2019-03-29T00:55:52.560Z,96.50
2019-03-29T00:56:52.549Z,100.70
2019-03-29T00:57:52.570Z,135.10
2019-03-29T00:58:52.543Z,128.90
2019-03-29T00:59:52.521Z,123.90
2019-03-29T01:00:52.512Z,119.00
2019-03-29T01:01:53.095Z,99.00
2019-03-29T01:02:52.508Z,141.00
2019-03-29T01:03:52.479Z,122.80
2019-03-29T01:04:52.464Z,133.80
2019-03-29T01:05:52.456Z,149.30
2019-03-29T01:06:52.444Z,134.10
2019-03-29T01:08:06.710Z,127.80
2019-03-29T01:08:53.484Z,128.00
2019-03-29T01:09:52.410Z,144.80
2019-03-29T01:10:52.405Z,145.40
2019-03-29T01:11:52.390Z,139.90
2019-03-29T01:12:52.381Z,134.10
2019-03-29T01:13:52.368Z,160.60
2019-03-29T01:14:52.368Z,163.80
2019-03-29T01:15:52.347Z,157.00
2019-03-29T01:16:52.333Z,171.30
2019-03-29T01:17:52.325Z,163.10
2019-03-29T01:18:52.313Z,186.10
2019-03-29T01:19:52.313Z,149.20
2019-03-29T01:20:52.286Z,185.30
2019-03-29T01:21:52.274Z,184.80
2019-03-29T01:22:52.263Z,175.40
2019-03-29T01:23:52.257Z,190.90
2019-03-29T01:24:52.256Z,191.00
2019-03-29T01:25:52.252Z,200.40
2019-03-29T01:26:52.406Z,188.70
2019-03-29T01:27:52.222Z,192.90
2019-03-29T01:28:52.204Z,174.50
2019-03-29T01:29:52.194Z,182.00
2019-03-29T01:30:52.190Z,185.90
2019-03-29T01:31:52.172Z,191.90
2019-03-29T01:32:52.158Z,205.40
2019-03-29T01:33:52.151Z,177.40
2019-03-29T01:34:52.136Z,173.90
2019-03-29T01:35:52.142Z,186.20
2019-03-29T01:36:52.121Z,185.30
2019-03-29T01:37:52.103Z,189.60
2019-03-29T01:38:52.093Z,183.40
2019-03-29T01:39:52.109Z,202.20
2019-03-29T01:40:52.073Z,202.70
2019-03-29T01:41:52.947Z,168.00
2019-03-29T01:42:52.048Z,183.50
2019-03-29T01:43:52.035Z,204.80
2019-03-29T01:44:52.024Z,210.20
2019-03-29T01:45:52.037Z,205.10
2019-03-29T01:46:52.011Z,197.90
2019-03-29T01:47:51.995Z,186.60
2019-03-29T01:48:52.004Z,185.80
2019-03-29T01:49:51.972Z,191.90
2019-03-29T01:50:51.971Z,194.80
2019-03-29T01:51:51.955Z,218.80
2019-03-29T01:52:51.939Z,196.00
2019-03-29T01:53:51.933Z,206.10
2019-03-29T01:54:51.918Z,181.20
2019-03-29T01:55:51.900Z,207.70
2019-03-29T01:56:51.910Z,211.60
2019-03-29T01:57:51.882Z,204.80
2019-03-29T01:58:51.873Z,204.60
2019-03-29T01:59:51.862Z,211.50
2019-03-29T02:00:51.849Z,196.00
2019-03-29T02:01:51.877Z,199.30
2019-03-29T02:02:51.832Z,176.60
2019-03-29T02:03:51.863Z,162.80
2019-03-29T02:04:51.802Z,193.10
2019-03-29T02:05:51.791Z,192.40
2019-03-29T02:06:51.787Z,188.70
2019-03-29T02:07:51.777Z,207.90
2019-03-29T02:08:51.759Z,181.30
2019-03-29T02:09:51.794Z,151.50
2019-03-29T02:10:51.736Z,195.60
2019-03-29T02:11:51.730Z,168.60
2019-03-29T02:12:51.731Z,190.20
2019-03-29T02:13:51.975Z,198.10
2019-03-29T02:14:51.698Z,195.60
2019-03-29T02:15:51.705Z,164.10
2019-03-29T02:16:51.676Z,166.20
2019-03-29T02:17:51.662Z,161.90
2019-03-29T02:18:51.658Z,179.10
2019-03-29T02:19:51.664Z,176.70
2019-03-29T02:20:51.626Z,237.90
2019-03-29T02:21:51.627Z,230.50
2019-03-29T02:22:51.655Z,177.90
2019-03-29T02:23:51.599Z,214.40
2019-03-29T02:24:51.603Z,230.90
2019-03-29T02:25:51.591Z,194.80
2019-03-29T02:26:51.568Z,202.60
2019-03-29T02:27:52.272Z,177.40
2019-03-29T02:28:51.543Z,194.30
2019-03-29T02:29:51.528Z,198.70
2019-03-29T02:30:51.526Z,177.10
2019-03-29T02:31:51.512Z,211.40
2019-03-29T02:32:52.656Z,163.60
2019-03-29T02:33:51.494Z,170.10
2019-03-29T02:34:51.473Z,146.90
2019-03-29T02:35:51.481Z,159.40
2019-03-29T02:36:51.458Z,156.00
2019-03-29T02:37:51.449Z,179.50
2019-03-29T02:38:55.614Z,134.80
2019-03-29T02:39:51.418Z,143.90
2019-03-29T02:40:51.532Z,185.90
2019-03-29T02:41:51.398Z,144.40
2019-03-29T02:42:51.396Z,146.10
2019-03-29T02:43:51.404Z,152.00
2019-03-29T02:44:51.369Z,133.90
2019-03-29T02:45:51.364Z,122.50
2019-03-29T02:46:51.400Z,145.70
2019-03-29T02:47:51.337Z,132.90
2019-03-29T02:48:51.340Z,122.80
2019-03-29T02:49:51.333Z,145.20
2019-03-29T02:50:51.298Z,119.90
2019-03-29T02:51:51.296Z,123.90
2019-03-29T02:52:51.283Z,107.50
2019-03-29T02:53:51.277Z,109.70
2019-03-29T02:54:51.265Z,125.30
2019-03-29T02:55:51.249Z,112.90
2019-03-29T02:56:51.240Z,106.00
2019-03-29T02:57:51.226Z,112.10
2019-03-29T02:58:51.216Z,128.20
2019-03-29T02:59:51.218Z,112.70
2019-03-29T03:00:51.268Z,117.80
2019-03-29T03:01:51.178Z,111.20
2019-03-29T03:02:51.170Z,111.40
2019-03-29T03:03:51.166Z,131.80
2019-03-29T03:04:51.144Z,127.40
2019-03-29T03:05:51.152Z,118.00
2019-03-29T03:06:51.128Z,139.00
2019-03-29T03:07:51.111Z,148.40
2019-03-29T03:08:51.167Z,124.50
2019-03-29T03:09:51.099Z,134.30
2019-03-29T03:10:51.126Z,122.90
2019-03-29T03:11:51.067Z,137.00
2019-03-29T03:12:51.065Z,132.10
2019-03-29T03:13:51.049Z,144.40
2019-03-29T03:14:51.035Z,138.30
2019-03-29T03:15:51.037Z,156.80
2019-03-29T03:16:51.022Z,148.50
2019-03-29T03:17:51.006Z,140.20
2019-03-29T03:18:50.994Z,158.30
2019-03-29T03:19:50.980Z,169.50
2019-03-29T03:20:50.975Z,151.60
2019-03-29T03:21:50.988Z,153.60
2019-03-29T03:22:50.950Z,143.00
2019-03-29T03:23:50.960Z,142.60
2019-03-29T03:24:50.927Z,151.60
2019-03-29T03:25:50.918Z,125.20
2019-03-29T03:26:50.911Z,151.10
2019-03-29T03:27:50.906Z,134.40
2019-03-29T03:28:50.883Z,127.20
2019-03-29T03:29:50.869Z,144.30
2019-03-29T03:30:50.873Z,130.30
2019-03-29T03:31:50.900Z,130.70
2019-03-29T03:32:50.900Z,150.30
2019-03-29T03:33:50.825Z,141.50
2019-03-29T03:34:50.838Z,144.90
2019-03-29T03:35:50.820Z,171.10
2019-03-29T03:36:50.794Z,146.50
2019-03-29T03:37:50.802Z,128.90
2019-03-29T03:38:50.775Z,129.90
2019-03-29T03:39:50.777Z,130.30
2019-03-29T03:40:50.753Z,146.30
2019-03-29T03:41:50.743Z,159.30
2019-03-29T03:42:50.726Z,148.20
2019-03-29T03:43:50.734Z,140.40
2019-03-29T03:44:50.708Z,166.80
2019-03-29T03:45:50.701Z,122.20
2019-03-29T03:46:50.688Z,148.30
2019-03-29T03:47:50.688Z,167.10
2019-03-29T03:48:50.682Z,142.90
2019-03-29T03:49:50.667Z,176.30
2019-03-29T03:50:50.638Z,160.50
2019-03-29T03:51:50.632Z,152.80
2019-03-29T03:52:50.624Z,153.80
2019-03-29T03:53:50.612Z,158.70
2019-03-29T03:54:50.598Z,173.20
2019-03-29T03:55:50.603Z,168.10
2019-03-29T03:56:50.576Z,165.30
2019-03-29T03:57:50.575Z,177.40
2019-03-29T03:58:50.553Z,176.70
2019-03-29T03:59:50.633Z,166.30
2019-03-29T04:00:50.556Z,181.80
2019-03-29T04:01:50.594Z,195.70
2019-03-29T04:02:50.525Z,219.10
2019-03-29T04:03:50.496Z,210.80
2019-03-29T04:04:50.491Z,190.30
2019-03-29T04:05:50.494Z,207.70
2019-03-29T04:06:50.478Z,214.80
2019-03-29T04:07:50.457Z,225.00
2019-03-29T04:08:50.462Z,216.60
2019-03-29T04:09:50.808Z,237.40
2019-03-29T04:10:50.418Z,222.40
2019-03-29T04:11:50.436Z,207.90
2019-03-29T04:12:50.403Z,252.40
2019-03-29T04:13:50.397Z,255.60
2019-03-29T04:14:50.380Z,237.20
2019-03-29T04:15:50.368Z,248.90
2019-03-29T04:16:50.399Z,234.50
2019-03-29T04:17:50.350Z,276.10
2019-03-29T04:18:50.343Z,275.20
2019-03-29T04:19:50.322Z,239.70
2019-03-29T04:20:50.332Z,221.60
2019-03-29T04:21:50.300Z,226.90
2019-03-29T04:22:50.294Z,208.90
2019-03-29T04:23:50.298Z,243.90
2019-03-29T04:24:50.269Z,221.00
2019-03-29T04:25:50.260Z,237.40
2019-03-29T04:26:50.243Z,249.70
2019-03-29T04:27:50.238Z,209.80
2019-03-29T04:29:03.443Z,227.20
2019-03-29T04:29:51.221Z,210.70
2019-03-29T04:30:50.210Z,245.50
2019-03-29T04:31:50.191Z,272.50
2019-03-29T04:32:50.178Z,179.60
2019-03-29T04:33:50.172Z,283.70
2019-03-29T04:34:50.176Z,248.00
2019-03-29T04:35:50.148Z,258.40
2019-03-29T04:36:50.140Z,278.80
2019-03-29T04:37:50.138Z,257.60
2019-03-29T04:38:50.121Z,288.10
2019-03-29T04:40:06.448Z,228.00
2019-03-29T04:40:51.090Z,290.50
2019-03-29T04:41:50.086Z,270.70
2019-03-29T04:42:50.131Z,253.70
2019-03-29T04:43:50.067Z,225.90
2019-03-29T04:44:50.051Z,256.60
2019-03-29T04:45:50.087Z,282.60
2019-03-29T04:46:50.028Z,290.60
2019-03-29T04:47:50.015Z,260.40
2019-03-29T04:48:50.004Z,245.90
2019-03-29T04:49:50.000Z,238.90
2019-03-29T04:50:49.988Z,231.00
2019-03-29T04:51:49.988Z,217.70
2019-03-29T04:52:49.995Z,279.90
2019-03-29T04:53:49.961Z,218.90
2019-03-29T04:54:49.937Z,228.00
2019-03-29T04:55:49.930Z,212.90
2019-03-29T04:56:49.941Z,179.80
2019-03-29T04:57:49.907Z,257.60
2019-03-29T04:58:49.892Z,267.60
2019-03-29T04:59:49.881Z,251.80
2019-03-29T05:00:49.877Z,244.80
2019-03-29T05:01:49.863Z,234.20
2019-03-29T05:02:49.868Z,200.70
2019-03-29T05:03:49.855Z,241.50
2019-03-29T05:04:49.852Z,133.00
2019-03-29T05:05:49.816Z,221.60
2019-03-29T05:06:49.864Z,299.80
2019-03-29T05:07:49.794Z,229.80
2019-03-29T05:08:49.790Z,179.50
2019-03-29T05:09:49.779Z,233.70
2019-03-29T05:10:49.790Z,191.10
2019-03-29T05:11:49.762Z,197.50
2019-03-29T05:12:49.754Z,214.60
2019-03-29T05:13:49.727Z,196.20
2019-03-29T05:14:49.721Z,186.30
2019-03-29T05:15:49.714Z,240.80
2019-03-29T05:16:49.711Z,219.90
2019-03-29T05:17:49.700Z,178.70
2019-03-29T05:18:49.677Z,214.50
2019-03-29T05:19:49.664Z,220.80
2019-03-29T05:20:49.657Z,220.40
2019-03-29T05:21:49.691Z,275.70
2019-03-29T05:22:49.631Z,227.70
2019-03-29T05:23:49.623Z,230.30
2019-03-29T05:24:49.611Z,246.10
2019-03-29T05:25:49.597Z,278.50
2019-03-29T05:26:49.598Z,240.30
2019-03-29T05:27:49.586Z,229.20
2019-03-29T05:28:49.568Z,237.90
2019-03-29T05:29:49.558Z,217.80
2019-03-29T05:30:49.543Z,213.10
2019-03-29T05:31:49.541Z,184.20
2019-03-29T05:32:49.532Z,207.50
2019-03-29T05:33:49.514Z,226.90
2019-03-29T05:34:49.522Z,249.20
2019-03-29T05:35:49.513Z,205.90
2019-03-29T05:36:49.480Z,186.70
2019-03-29T05:37:49.494Z,234.60
2019-03-29T05:38:49.473Z,211.10
2019-03-29T05:39:49.452Z,219.10
2019-03-29T05:40:49.437Z,200.90
2019-03-29T05:41:49.427Z,288.20
2019-03-29T05:42:49.447Z,225.40
2019-03-29T05:43:49.413Z,275.10
2019-03-29T05:44:49.405Z,240.80
2019-03-29T05:45:49.382Z,262.50
2019-03-29T05:46:49.373Z,257.70
2019-03-29T05:47:49.364Z,303.70
2019-03-29T05:48:49.386Z,268.60
2019-03-29T05:49:49.342Z,233.20
2019-03-29T05:50:49.328Z,271.00
2019-03-29T05:51:49.316Z,279.80
2019-03-29T05:52:49.311Z,267.20
2019-03-29T05:53:49.300Z,243.70
2019-03-29T05:54:49.302Z,232.70
2019-03-29T05:55:49.312Z,298.50
2019-03-29T05:56:49.268Z,237.20
2019-03-29T05:57:49.255Z,262.60
2019-03-29T05:58:49.247Z,230.80
2019-03-29T05:59:49.256Z,252.00
2019-03-29T06:00:49.224Z,212.80
2019-03-29T06:01:49.215Z,211.00
2019-03-29T06:02:49.210Z,210.40
2019-03-29T06:03:49.199Z,205.50
2019-03-29T06:04:49.201Z,240.00
2019-03-29T06:05:49.174Z,209.60
2019-03-29T06:06:49.160Z,254.50
2019-03-29T06:07:49.152Z,216.60
2019-03-29T06:08:49.145Z,234.20
2019-03-29T06:09:49.127Z,283.90
2019-03-29T06:10:49.781Z,228.90
2019-03-29T06:11:49.112Z,194.80
2019-03-29T06:12:49.094Z,215.90
2019-03-29T06:13:49.081Z,200.80
2019-03-29T06:14:49.076Z,179.10
2019-03-29T06:15:49.065Z,198.20
2019-03-29T06:16:49.074Z,188.00
2019-03-29T06:17:49.351Z,172.20
2019-03-29T06:18:49.034Z,147.80
2019-03-29T06:19:49.028Z,149.50
2019-03-29T06:20:49.008Z,179.60
2019-03-29T06:21:49.004Z,162.90
2019-03-29T06:22:48.989Z,176.60
2019-03-29T06:23:48.975Z,149.50
2019-03-29T06:24:48.961Z,150.40
2019-03-29T06:25:48.955Z,161.10
2019-03-29T06:26:48.981Z,175.80
2019-03-29T06:27:48.931Z,129.80
2019-03-29T06:28:48.920Z,148.30
2019-03-29T06:29:48.908Z,142.00
2019-03-29T06:30:48.899Z,128.40
2019-03-29T06:31:48.887Z,135.20
2019-03-29T06:32:48.906Z,126.50
2019-03-29T06:33:48.885Z,156.20
2019-03-29T06:34:48.932Z,138.90
2019-03-29T06:35:48.842Z,129.00
2019-03-29T06:36:48.830Z,128.40
2019-03-29T06:37:48.819Z,125.10
2019-03-29T06:38:48.814Z,128.40
2019-03-29T06:39:48.791Z,124.60
2019-03-29T06:41:01.723Z,116.40
2019-03-29T06:41:49.771Z,127.50
2019-03-29T06:42:48.754Z,110.60
2019-03-29T06:43:48.760Z,142.40
2019-03-29T06:44:48.756Z,119.10
2019-03-29T06:45:48.728Z,122.70
2019-03-29T06:46:48.717Z,106.30
2019-03-29T06:47:48.701Z,120.60
2019-03-29T06:48:48.705Z,129.60
2019-03-29T06:49:48.688Z,128.10
2019-03-29T06:50:48.792Z,113.00
2019-03-29T06:51:48.661Z,116.30
2019-03-29T06:52:48.661Z,100.80
2019-03-29T06:53:48.670Z,107.70
2019-03-29T06:54:48.623Z,119.60
2019-03-29T06:55:48.615Z,108.90
2019-03-29T06:56:48.602Z,112.30
2019-03-29T06:57:48.587Z,124.50
2019-03-29T06:58:48.580Z,112.80
2019-03-29T06:59:48.583Z,126.10
2019-03-29T07:00:48.579Z,103.50
2019-03-29T07:01:48.548Z,105.80
2019-03-29T07:02:48.534Z,116.90
2019-03-29T07:03:48.528Z,108.20
2019-03-29T07:04:48.518Z,109.10
2019-03-29T07:05:48.503Z,110.60
2019-03-29T07:06:48.503Z,114.50
2019-03-29T07:07:48.481Z,113.00
2019-03-29T07:08:48.469Z,115.60
2019-03-29T07:09:48.491Z,112.80
2019-03-29T07:10:48.442Z,104.50
2019-03-29T07:11:48.437Z,105.60
2019-03-29T07:12:48.421Z,113.50
2019-03-29T07:13:57.542Z,102.00
2019-03-29T07:14:49.411Z,107.30
2019-03-29T07:15:48.399Z,108.70
2019-03-29T07:16:48.383Z,113.40
2019-03-29T07:17:48.372Z,110.70
2019-03-29T07:18:48.360Z,114.00
2019-03-29T07:19:48.365Z,116.30
2019-03-29T07:20:48.338Z,111.50
2019-03-29T07:21:48.331Z,113.00
2019-03-29T07:22:48.317Z,106.80
2019-03-29T07:23:48.312Z,112.40
2019-03-29T07:24:48.305Z,126.40
2019-03-29T07:25:48.280Z,96.50
2019-03-29T07:26:48.269Z,94.30
2019-03-29T07:27:52.245Z,103.00
2019-03-29T07:28:48.259Z,121.20
2019-03-29T07:29:48.249Z,124.80
2019-03-29T07:30:48.223Z,111.90
2019-03-29T07:31:48.221Z,95.00
2019-03-29T07:32:48.209Z,104.60
2019-03-29T07:33:48.247Z,103.30
2019-03-29T07:34:49.263Z,106.00
2019-03-29T07:35:48.177Z,101.00
2019-03-29T07:36:48.170Z,106.60
2019-03-29T07:37:48.156Z,99.50
2019-03-29T07:38:48.139Z,110.00
2019-03-29T07:39:48.132Z,109.90
2019-03-29T07:40:48.130Z,96.10
2019-03-29T07:41:48.109Z,101.00
2019-03-29T07:42:48.110Z,94.80
2019-03-29T07:43:48.096Z,94.00
2019-03-29T07:44:48.077Z,87.60
2019-03-29T07:45:48.073Z,94.40
2019-03-29T07:46:48.094Z,98.30
2019-03-29T07:47:48.043Z,102.90
2019-03-29T07:48:48.030Z,99.10
2019-03-29T07:49:48.021Z,100.50
2019-03-29T07:50:48.017Z,95.70
2019-03-29T07:51:48.003Z,97.30
2019-03-29T07:52:47.999Z,93.20
2019-03-29T07:53:47.976Z,93.40
2019-03-29T07:54:47.966Z,95.30
2019-03-29T07:55:47.950Z,82.40
2019-03-29T07:56:47.946Z,78.60
2019-03-29T07:57:47.950Z,86.20
2019-03-29T07:58:47.967Z,91.60
2019-03-29T07:59:47.907Z,92.70
2019-03-29T08:00:47.902Z,90.50
2019-03-29T08:01:47.889Z,86.10
2019-03-29T08:02:47.875Z,89.40
2019-03-29T08:03:51.093Z,88.60
2019-03-29T08:04:47.851Z,89.50
2019-03-29T08:05:47.847Z,87.50
2019-03-29T08:06:47.840Z,91.10
2019-03-29T08:07:47.824Z,86.80
2019-03-29T08:08:47.835Z,79.80
2019-03-29T08:09:47.815Z,80.40
2019-03-29T08:10:47.793Z,81.20
2019-03-29T08:11:47.783Z,85.50
2019-03-29T08:12:49.168Z,82.10
2019-03-29T08:13:47.783Z,79.50
2019-03-29T08:14:47.774Z,80.50
2019-03-29T08:15:47.731Z,70.80
2019-03-29T08:16:47.727Z,81.10
2019-03-29T08:17:47.714Z,85.00
2019-03-29T08:18:47.715Z,79.50
2019-03-29T08:19:47.686Z,74.80
2019-03-29T08:20:47.691Z,74.20
2019-03-29T08:21:47.684Z,79.20
2019-03-29T08:22:47.661Z,80.80
2019-03-29T08:23:47.650Z,79.70
2019-03-29T08:24:47.642Z,77.30
2019-03-29T08:25:47.630Z,78.70
2019-03-29T08:26:47.621Z,79.50
2019-03-29T08:27:47.642Z,77.00
2019-03-29T08:28:47.591Z,73.40
2019-03-29T08:29:47.575Z,73.00
2019-03-29T08:30:47.578Z,71.30
2019-03-29T08:31:47.553Z,76.40
2019-03-29T08:32:47.549Z,82.40
2019-03-29T08:33:47.537Z,72.50
2019-03-29T08:34:47.529Z,74.40
2019-03-29T08:35:47.526Z,71.40
2019-03-29T08:36:47.503Z,72.40
2019-03-29T08:37:47.494Z,73.10
2019-03-29T08:38:47.487Z,69.20
2019-03-29T08:39:47.478Z,68.60
2019-03-29T08:40:47.480Z,70.80
2019-03-29T08:41:59.435Z,71.10
2019-03-29T08:42:48.438Z,74.30
2019-03-29T08:43:47.426Z,68.60
2019-03-29T08:44:47.444Z,70.40
2019-03-29T08:45:47.420Z,69.70
2019-03-29T08:46:47.397Z,77.90
2019-03-29T08:47:47.377Z,75.40
2019-03-29T08:48:47.371Z,72.00
2019-03-29T08:49:47.365Z,70.80
2019-03-29T08:50:47.348Z,70.60
2019-03-29T08:51:47.353Z,72.90
2019-03-29T08:52:47.321Z,68.60
2019-03-29T08:53:47.310Z,70.70
2019-03-29T08:54:48.392Z,69.60
2019-03-29T08:55:47.293Z,71.10
2019-03-29T08:56:47.289Z,70.00
2019-03-29T08:57:47.290Z,69.00
2019-03-29T08:58:47.262Z,66.50
2019-03-29T08:59:47.244Z,64.80
2019-03-29T09:00:47.241Z,62.40
2019-03-29T09:01:47.232Z,66.70
2019-03-29T09:02:47.335Z,62.90
2019-03-29T09:04:02.743Z,62.20
2019-03-29T09:04:48.195Z,64.70
2019-03-29T09:05:47.185Z,62.40
2019-03-29T09:06:53.236Z,66.70
2019-03-29T09:07:48.181Z,62.20
2019-03-29T09:08:47.163Z,61.70
2019-03-29T09:09:47.139Z,65.30
2019-03-29T09:10:47.136Z,64.30
2019-03-29T09:11:47.117Z,60.50
2019-03-29T09:12:47.106Z,65.80
2019-03-29T09:13:47.105Z,61.20
2019-03-29T09:14:47.087Z,61.60
2019-03-29T09:15:47.070Z,62.60
2019-03-29T09:16:47.082Z,64.20
2019-03-29T09:17:47.047Z,55.50
2019-03-29T09:18:47.054Z,58.20
2019-03-29T09:19:47.029Z,58.40
2019-03-29T09:20:47.046Z,60.80
2019-03-29T09:21:47.057Z,58.90
2019-03-29T09:22:46.992Z,56.00
2019-03-29T09:23:46.990Z,57.20
2019-03-29T09:24:46.975Z,52.30
2019-03-29T09:25:46.972Z,58.00
2019-03-29T09:26:46.947Z,56.70
2019-03-29T09:27:46.950Z,58.20
2019-03-29T09:28:46.929Z,52.20
2019-03-29T09:29:46.914Z,55.40
2019-03-29T09:30:46.919Z,51.20
2019-03-29T09:31:46.932Z,57.50
2019-03-29T09:32:46.887Z,50.60
2019-03-29T09:33:46.951Z,52.20
2019-03-29T09:34:46.864Z,56.80
2019-03-29T09:35:46.849Z,57.00
2019-03-29T09:36:46.842Z,58.00
2019-03-29T09:37:46.847Z,52.80
2019-03-29T09:38:46.825Z,53.10
2019-03-29T09:39:46.811Z,56.10
2019-03-29T09:40:57.742Z,55.30
2019-03-29T09:41:47.785Z,58.90
2019-03-29T09:42:46.853Z,52.80
2019-03-29T09:43:46.759Z,55.00
2019-03-29T09:44:46.753Z,57.70
2019-03-29T09:45:46.740Z,56.10
2019-03-29T09:46:46.733Z,56.80
2019-03-29T09:47:46.731Z,59.10
2019-03-29T09:48:46.757Z,55.80
2019-03-29T09:49:46.705Z,56.70
2019-03-29T09:50:50.425Z,48.60
2019-03-29T09:51:46.677Z,51.50
2019-03-29T09:52:46.668Z,54.40
2019-03-29T09:53:46.652Z,52.60
2019-03-29T09:54:46.677Z,54.30
2019-03-29T09:55:46.633Z,58.50
2019-03-29T09:56:48.352Z,57.60
2019-03-29T09:57:46.610Z,51.20
2019-03-29T09:58:46.601Z,52.90
2019-03-29T09:59:46.594Z,50.50
2019-03-29T10:00:46.608Z,54.10
2019-03-29T10:01:46.568Z,53.30
2019-03-29T10:02:46.570Z,51.60
2019-03-29T10:03:46.539Z,48.00
2019-03-29T10:04:46.533Z,50.20
2019-03-29T10:05:46.521Z,44.80
2019-03-29T10:06:46.518Z,43.60
2019-03-29T10:07:46.494Z,45.40
2019-03-29T10:08:46.483Z,45.00
2019-03-29T10:09:46.491Z,45.00
2019-03-29T10:10:46.475Z,46.60
2019-03-29T10:11:46.494Z,44.90
2019-03-29T10:12:46.439Z,42.90
2019-03-29T10:13:46.443Z,42.80
2019-03-29T10:14:46.423Z,42.90
2019-03-29T10:15:46.424Z,42.50
2019-03-29T10:16:46.421Z,39.30
2019-03-29T10:17:46.387Z,37.40
2019-03-29T10:18:46.383Z,37.80
2019-03-29T10:19:49.624Z,34.10
2019-03-29T10:20:46.354Z,34.40
2019-03-29T10:21:46.345Z,35.60
2019-03-29T10:22:46.360Z,32.90
2019-03-29T10:23:46.352Z,31.30
2019-03-29T10:24:46.310Z,33.00
2019-03-29T10:25:46.305Z,31.30
2019-03-29T10:26:46.309Z,34.40
2019-03-29T10:27:46.284Z,34.70
2019-03-29T10:28:46.274Z,34.40
2019-03-29T10:29:46.257Z,34.70
2019-03-29T10:30:47.097Z,33.00
2019-03-29T10:31:46.246Z,34.90
2019-03-29T10:32:46.256Z,31.90
2019-03-29T10:33:48.891Z,30.80
2019-03-29T10:34:46.207Z,29.60
2019-03-29T10:35:52.287Z,28.80
2019-03-29T10:36:47.223Z,27.30
2019-03-29T10:37:46.178Z,28.80
2019-03-29T10:38:46.167Z,28.20
2019-03-29T10:39:46.158Z,33.20
2019-03-29T10:40:46.146Z,27.20
2019-03-29T10:41:46.136Z,27.60
2019-03-29T10:42:57.090Z,26.60
2019-03-29T10:43:47.111Z,25.90
2019-03-29T10:44:49.214Z,27.70
2019-03-29T10:45:46.093Z,24.50
2019-03-29T10:46:46.084Z,25.30
2019-03-29T10:47:46.075Z,25.60
2019-03-29T10:48:46.073Z,24.70
2019-03-29T10:49:46.053Z,24.40
2019-03-29T10:50:46.070Z,25.00
2019-03-29T10:51:46.028Z,24.90
2019-03-29T10:52:46.073Z,27.30
2019-03-29T10:53:46.031Z,25.00
2019-03-29T10:54:45.994Z,22.90
2019-03-29T10:55:45.982Z,23.70
2019-03-29T10:56:45.967Z,22.20
2019-03-29T10:57:45.956Z,22.40
2019-03-29T10:58:45.959Z,20.20
2019-03-29T10:59:45.950Z,22.50
2019-03-29T11:00:45.928Z,22.30
2019-03-29T11:01:45.916Z,21.20
2019-03-29T11:02:45.902Z,18.90
2019-03-29T11:03:45.891Z,22.10
2019-03-29T11:04:45.880Z,21.00
2019-03-29T11:05:45.881Z,19.80
2019-03-29T11:06:45.854Z,19.10
2019-03-29T11:07:45.848Z,18.70
2019-03-29T11:08:45.858Z,17.60
2019-03-29T11:09:45.824Z,22.20
2019-03-29T11:10:45.826Z,19.00
2019-03-29T11:11:45.802Z,16.90
2019-03-29T11:12:45.793Z,20.40
2019-03-29T11:13:45.808Z,17.70
2019-03-29T11:14:45.765Z,16.70
2019-03-29T11:15:45.757Z,14.50
2019-03-29T11:16:45.808Z,16.30
2019-03-29T11:17:45.737Z,15.80
2019-03-29T11:18:46.023Z,19.90
2019-03-29T11:19:45.717Z,16.50
2019-03-29T11:20:45.710Z,13.40
2019-03-29T11:21:45.727Z,16.30
2019-03-29T11:22:45.681Z,15.40
2019-03-29T11:23:45.667Z,13.00
2019-03-29T11:24:45.660Z,13.70
2019-03-29T11:25:48.371Z,11.50
2019-03-29T11:26:45.632Z,10.10
2019-03-29T11:27:45.626Z,9.70
2019-03-29T11:28:45.608Z,9.00
2019-03-29T11:29:45.601Z,7.50
2019-03-29T11:30:45.589Z,8.60
2019-03-29T11:31:45.620Z,9.50
2019-03-29T11:32:45.682Z,8.30
2019-03-29T11:33:45.565Z,8.00
2019-03-29T11:34:45.546Z,9.30
2019-03-29T11:35:45.543Z,8.60
2019-03-29T11:36:45.519Z,8.90
2019-03-29T11:37:45.528Z,7.40
2019-03-29T11:38:45.503Z,7.50
2019-03-29T11:39:45.492Z,7.70
2019-03-29T11:40:45.518Z,11.80
2019-03-29T11:41:45.472Z,9.20
2019-03-29T11:42:45.454Z,8.90
2019-03-29T11:43:45.442Z,7.40
2019-03-29T11:44:45.436Z,6.70
2019-03-29T11:45:45.425Z,6.70
2019-03-29T11:46:45.421Z,6.40
2019-03-29T11:47:45.403Z,6.60
2019-03-29T11:48:45.387Z,7.00
2019-03-29T11:49:45.386Z,7.10
2019-03-29T11:50:45.367Z,5.70
2019-03-29T11:51:45.369Z,6.10
2019-03-29T11:52:45.346Z,5.90
2019-03-29T11:53:45.482Z,7.30
2019-03-29T11:54:45.321Z,6.10
2019-03-29T11:55:45.324Z,5.80
2019-03-29T11:56:47.674Z,5.40
2019-03-29T11:57:45.302Z,6.60
2019-03-29T11:58:45.278Z,6.30
2019-03-29T11:59:45.262Z,6.20
2019-03-29T12:00:45.256Z,7.50
2019-03-29T12:01:45.278Z,7.50
2019-03-29T12:02:45.242Z,6.20
2019-03-29T12:03:45.262Z,7.70
2019-03-29T12:04:45.278Z,7.70
2019-03-29T12:05:45.211Z,8.80
2019-03-29T12:06:45.192Z,6.60
2019-03-29T12:07:45.192Z,5.90
2019-03-29T12:08:45.207Z,7.60
2019-03-29T12:09:45.152Z,5.90
2019-03-29T12:10:45.149Z,7.60
2019-03-29T12:11:45.134Z,7.00
2019-03-29T12:12:45.119Z,7.40
2019-03-29T12:13:45.114Z,8.40
2019-03-29T12:14:45.115Z,7.80
2019-03-29T12:15:45.089Z,9.90
2019-03-29T12:16:45.077Z,8.70
2019-03-29T12:17:45.072Z,8.10
2019-03-29T12:18:45.054Z,10.40
2019-03-29T12:19:45.048Z,9.10
2019-03-29T12:20:45.065Z,6.70
2019-03-29T12:21:45.020Z,8.40
2019-03-29T12:22:45.009Z,8.70
2019-03-29T12:23:45.015Z,7.10
2019-03-29T12:24:44.980Z,9.90
2019-03-29T12:25:44.978Z,7.70
2019-03-29T12:26:44.965Z,7.40
2019-03-29T12:27:44.948Z,6.60
2019-03-29T12:28:44.937Z,6.90
2019-03-29T12:29:44.941Z,7.90
2019-03-29T12:30:44.936Z,8.50
2019-03-29T12:31:44.954Z,8.00
2019-03-29T12:32:44.894Z,8.20
2019-03-29T12:33:44.900Z,8.70
2019-03-29T12:34:44.897Z,9.20
2019-03-29T12:35:44.866Z,8.90
2019-03-29T12:36:46.127Z,8.90
2019-03-29T12:37:44.847Z,10.10
2019-03-29T12:38:44.831Z,8.00
2019-03-29T12:39:44.822Z,8.60
2019-03-29T12:40:45.314Z,7.90
2019-03-29T12:41:44.820Z,7.60